THY2AW LTAZ-LTFM
Flight info
| Callsign | THY2AW |
|---|---|
| Flight time | 0h 59m |
| Altitude | 36000 |
| Route | AZBUL UW75 BAG UL605 YAVRU UL615 ERSEN |
| Aircraft | A320/M-SDE3FGHIRWY/LB1 |
Departure
| Time | 2026-05-06 12:57 |
|---|---|
| Airport | Nevşehir Kapadokya Airport (LTAZ) |
Arrival
| Time | 2026-05-06 13:56 |
|---|---|
| Airport | İstanbul Airport (LTFM) |
| Time | Latitude | Longitude | Altitude | Speed | Heading |
|---|---|---|---|---|---|
| 2026-05-06 12:43 | 38.77257 | 34.52484 | 3076 ft | 0 kts | 339° |
| 2026-05-06 12:51 | 38.77265 | 34.52481 | 3084 ft | 4 kts | 347° |
| 2026-05-06 12:51 | 38.77291 | 34.52485 | 3081 ft | 4 kts | 13° |
| 2026-05-06 12:51 | 38.77316 | 34.52498 | 3076 ft | 4 kts | 25° |
| 2026-05-06 12:51 | 38.77352 | 34.52520 | 3083 ft | 7 kts | 26° |
| 2026-05-06 12:52 | 38.77396 | 34.52549 | 3076 ft | 6 kts | 27° |
| 2026-05-06 12:52 | 38.77432 | 34.52573 | 3080 ft | 5 kts | 27° |
| 2026-05-06 12:52 | 38.77467 | 34.52596 | 3087 ft | 9 kts | 29° |
| 2026-05-06 12:52 | 38.77485 | 34.52687 | 3084 ft | 12 kts | 108° |
| 2026-05-06 12:53 | 38.77440 | 34.52829 | 3083 ft | 22 kts | 116° |
| 2026-05-06 12:53 | 38.77371 | 34.53003 | 3081 ft | 22 kts | 117° |
| 2026-05-06 12:53 | 38.77302 | 34.53175 | 3090 ft | 21 kts | 117° |
| 2026-05-06 12:53 | 38.77232 | 34.53346 | 3090 ft | 22 kts | 118° |
| 2026-05-06 12:54 | 38.77163 | 34.53519 | 3085 ft | 22 kts | 117° |
| 2026-05-06 12:54 | 38.77089 | 34.53699 | 3089 ft | 23 kts | 118° |
| 2026-05-06 12:54 | 38.77011 | 34.53886 | 3091 ft | 24 kts | 119° |
| 2026-05-06 12:54 | 38.76933 | 34.54079 | 3092 ft | 24 kts | 114° |
| 2026-05-06 12:55 | 38.76857 | 34.54273 | 3092 ft | 24 kts | 117° |
| 2026-05-06 12:55 | 38.76796 | 34.54466 | 3094 ft | 19 kts | 111° |
| 2026-05-06 12:55 | 38.76765 | 34.54507 | 3091 ft | 2 kts | 246° |
| 2026-05-06 12:55 | 38.76768 | 34.54487 | 3094 ft | 2 kts | 298° |
| 2026-05-06 12:56 | 38.76779 | 34.54466 | 3093 ft | 2 kts | 297° |
| 2026-05-06 12:56 | 38.76779 | 34.54465 | 3093 ft | 0 kts | 297° |
| 2026-05-06 12:56 | 38.76781 | 34.54461 | 3093 ft | 7 kts | 297° |
| 2026-05-06 12:56 | 38.76933 | 34.54082 | 3092 ft | 85 kts | 297° |
| 2026-05-06 12:57 | 38.77305 | 34.53165 | 3085 ft | 145 kts | 297° |
| 2026-05-06 12:57 | 38.77814 | 34.51875 | 3427 ft | 162 kts | 296° |
| 2026-05-06 12:57 | 38.78311 | 34.50600 | 4194 ft | 163 kts | 296° |
| 2026-05-06 12:57 | 38.78810 | 34.49293 | 4987 ft | 168 kts | 297° |
| 2026-05-06 12:58 | 38.79366 | 34.47842 | 5247 ft | 193 kts | 296° |
| 2026-05-06 12:58 | 38.80005 | 34.46217 | 5490 ft | 217 kts | 302° |
| 2026-05-06 12:58 | 38.80916 | 34.44536 | 5844 ft | 241 kts | 306° |
| 2026-05-06 12:58 | 38.81983 | 34.42748 | 6360 ft | 262 kts | 307° |
| 2026-05-06 12:59 | 38.83124 | 34.40879 | 7113 ft | 269 kts | 307° |
| 2026-05-06 12:59 | 38.84288 | 34.38980 | 7959 ft | 273 kts | 307° |
| 2026-05-06 12:59 | 38.85083 | 34.37678 | 8533 ft | 275 kts | 307° |
| 2026-05-06 12:59 | 38.86267 | 34.35730 | 9384 ft | 279 kts | 307° |
| 2026-05-06 13:00 | 38.87470 | 34.33743 | 10202 ft | 284 kts | 307° |
| 2026-05-06 13:00 | 38.88678 | 34.31650 | 10477 ft | 307 kts | 304° |
| 2026-05-06 13:00 | 38.89931 | 34.29312 | 10879 ft | 325 kts | 303° |
| 2026-05-06 13:00 | 38.91197 | 34.26876 | 11607 ft | 330 kts | 303° |
| 2026-05-06 13:01 | 38.92473 | 34.24397 | 12356 ft | 335 kts | 303° |
| 2026-05-06 13:01 | 38.93773 | 34.21879 | 13095 ft | 339 kts | 303° |
| 2026-05-06 13:01 | 38.95094 | 34.19338 | 13829 ft | 343 kts | 304° |
| 2026-05-06 13:01 | 38.96433 | 34.16775 | 14478 ft | 347 kts | 304° |
| 2026-05-06 13:02 | 38.97786 | 34.14194 | 15178 ft | 349 kts | 304° |
| 2026-05-06 13:02 | 38.99153 | 34.11595 | 15873 ft | 352 kts | 304° |
| 2026-05-06 13:02 | 39.00529 | 34.08982 | 16554 ft | 354 kts | 304° |
| 2026-05-06 13:02 | 39.01913 | 34.06349 | 17225 ft | 356 kts | 304° |
| 2026-05-06 13:03 | 39.03286 | 34.03729 | 17904 ft | 358 kts | 304° |
| 2026-05-06 13:03 | 39.04678 | 34.01062 | 18572 ft | 361 kts | 304° |
| 2026-05-06 13:03 | 39.06078 | 33.98373 | 19193 ft | 362 kts | 304° |
| 2026-05-06 13:03 | 39.07482 | 33.95678 | 19813 ft | 363 kts | 304° |
| 2026-05-06 13:04 | 39.08895 | 33.92969 | 20432 ft | 364 kts | 304° |
| 2026-05-06 13:04 | 39.10309 | 33.90259 | 21036 ft | 366 kts | 304° |
| 2026-05-06 13:04 | 39.11733 | 33.87529 | 21655 ft | 367 kts | 304° |
| 2026-05-06 13:04 | 39.13162 | 33.84783 | 22266 ft | 369 kts | 304° |
| 2026-05-06 13:05 | 39.14589 | 33.82032 | 22857 ft | 370 kts | 304° |
| 2026-05-06 13:05 | 39.16023 | 33.79262 | 23440 ft | 372 kts | 304° |
| 2026-05-06 13:05 | 39.17461 | 33.76482 | 23943 ft | 374 kts | 304° |
| 2026-05-06 13:05 | 39.18906 | 33.73688 | 24397 ft | 375 kts | 304° |
| 2026-05-06 13:06 | 39.20345 | 33.70914 | 24840 ft | 377 kts | 304° |
| 2026-05-06 13:06 | 39.21806 | 33.68099 | 25268 ft | 379 kts | 304° |
| 2026-05-06 13:06 | 39.23273 | 33.65266 | 25678 ft | 381 kts | 304° |
| 2026-05-06 13:06 | 39.24747 | 33.62413 | 26085 ft | 383 kts | 304° |
| 2026-05-06 13:07 | 39.26226 | 33.59544 | 26489 ft | 385 kts | 304° |
| 2026-05-06 13:07 | 39.27715 | 33.56655 | 26892 ft | 386 kts | 304° |
| 2026-05-06 13:07 | 39.29211 | 33.53756 | 27282 ft | 388 kts | 304° |
| 2026-05-06 13:07 | 39.30710 | 33.50846 | 27671 ft | 390 kts | 304° |
| 2026-05-06 13:08 | 39.32213 | 33.47921 | 28047 ft | 392 kts | 304° |
| 2026-05-06 13:08 | 39.33721 | 33.44980 | 28428 ft | 394 kts | 304° |
| 2026-05-06 13:08 | 39.35239 | 33.42022 | 28792 ft | 396 kts | 304° |
| 2026-05-06 13:08 | 39.36795 | 33.39124 | 29139 ft | 397 kts | 309° |
| 2026-05-06 13:09 | 39.38694 | 33.36536 | 29485 ft | 399 kts | 319° |
| 2026-05-06 13:09 | 39.40938 | 33.34410 | 29813 ft | 401 kts | 328° |
| 2026-05-06 13:09 | 39.43413 | 33.32702 | 30123 ft | 404 kts | 330° |
| 2026-05-06 13:09 | 39.45876 | 33.30938 | 30394 ft | 405 kts | 328° |
| 2026-05-06 13:10 | 39.48290 | 33.29048 | 30655 ft | 406 kts | 327° |
| 2026-05-06 13:10 | 39.50678 | 33.27083 | 30908 ft | 408 kts | 326° |
| 2026-05-06 13:10 | 39.53066 | 33.25084 | 31149 ft | 409 kts | 326° |
| 2026-05-06 13:10 | 39.55462 | 33.23081 | 31392 ft | 411 kts | 326° |
| 2026-05-06 13:11 | 39.57878 | 33.21082 | 31660 ft | 411 kts | 327° |
| 2026-05-06 13:11 | 39.60293 | 33.19107 | 32005 ft | 410 kts | 327° |
| 2026-05-06 13:11 | 39.62705 | 33.17149 | 32339 ft | 409 kts | 327° |
| 2026-05-06 13:11 | 39.65091 | 33.15219 | 32675 ft | 408 kts | 327° |
| 2026-05-06 13:12 | 39.67494 | 33.13274 | 33019 ft | 407 kts | 327° |
| 2026-05-06 13:12 | 39.69896 | 33.11331 | 33360 ft | 406 kts | 327° |
| 2026-05-06 13:12 | 39.72289 | 33.09393 | 33684 ft | 405 kts | 327° |
| 2026-05-06 13:12 | 39.74680 | 33.07455 | 34014 ft | 404 kts | 327° |
| 2026-05-06 13:13 | 39.77062 | 33.05520 | 34290 ft | 404 kts | 327° |
| 2026-05-06 13:13 | 39.79442 | 33.03581 | 34521 ft | 404 kts | 327° |
| 2026-05-06 13:13 | 39.81021 | 33.02291 | 34655 ft | 405 kts | 327° |
| 2026-05-06 13:14 | 39.83921 | 32.99902 | 34902 ft | 406 kts | 327° |
| 2026-05-06 13:14 | 39.86312 | 32.97939 | 35108 ft | 407 kts | 327° |
| 2026-05-06 13:14 | 39.88715 | 32.95978 | 35308 ft | 408 kts | 327° |
| 2026-05-06 13:14 | 39.91121 | 32.94016 | 35504 ft | 408 kts | 327° |
| 2026-05-06 13:15 | 39.93534 | 32.92046 | 35689 ft | 409 kts | 327° |
| 2026-05-06 13:15 | 39.95945 | 32.90070 | 35876 ft | 410 kts | 327° |
| 2026-05-06 13:15 | 39.98366 | 32.88086 | 36039 ft | 411 kts | 327° |
| 2026-05-06 13:16 | 40.03189 | 32.84130 | 36086 ft | 408 kts | 327° |
| 2026-05-06 13:16 | 40.07612 | 32.79554 | 36084 ft | 407 kts | 311° |
| 2026-05-06 13:17 | 40.10952 | 32.73577 | 36090 ft | 408 kts | 306° |
| 2026-05-06 13:17 | 40.14168 | 32.67522 | 36090 ft | 408 kts | 306° |
| 2026-05-06 13:18 | 40.17403 | 32.61424 | 36082 ft | 408 kts | 306° |
| 2026-05-06 13:18 | 40.20629 | 32.55318 | 36080 ft | 408 kts | 306° |
| 2026-05-06 13:19 | 40.23866 | 32.49188 | 36082 ft | 408 kts | 306° |
| 2026-05-06 13:19 | 40.27076 | 32.43104 | 36078 ft | 408 kts | 306° |
| 2026-05-06 13:20 | 40.30300 | 32.36977 | 36081 ft | 409 kts | 306° |
| 2026-05-06 13:20 | 40.33525 | 32.30841 | 36081 ft | 409 kts | 306° |
| 2026-05-06 13:21 | 40.36750 | 32.24694 | 36075 ft | 409 kts | 306° |
| 2026-05-06 13:21 | 40.39964 | 32.18533 | 36079 ft | 409 kts | 306° |
| 2026-05-06 13:22 | 40.43179 | 32.12362 | 36078 ft | 409 kts | 306° |
| 2026-05-06 13:22 | 40.46398 | 32.06181 | 36077 ft | 410 kts | 306° |
| 2026-05-06 13:23 | 40.49597 | 32.00007 | 36083 ft | 410 kts | 305° |
| 2026-05-06 13:23 | 40.52790 | 31.93837 | 36082 ft | 410 kts | 305° |
| 2026-05-06 13:24 | 40.55999 | 31.87621 | 36094 ft | 411 kts | 305° |
| 2026-05-06 13:24 | 40.58784 | 31.81042 | 36091 ft | 414 kts | 291° |
| 2026-05-06 13:25 | 40.60571 | 31.73823 | 36091 ft | 415 kts | 290° |
| 2026-05-06 13:25 | 40.62352 | 31.66611 | 36088 ft | 414 kts | 290° |
| 2026-05-06 13:26 | 40.64129 | 31.59438 | 36090 ft | 415 kts | 290° |
| 2026-05-06 13:26 | 40.65912 | 31.52198 | 36086 ft | 415 kts | 290° |
| 2026-05-06 13:27 | 40.67691 | 31.44955 | 36091 ft | 416 kts | 290° |
| 2026-05-06 13:27 | 40.69470 | 31.37699 | 36092 ft | 416 kts | 290° |
| 2026-05-06 13:28 | 40.71243 | 31.30424 | 36093 ft | 417 kts | 290° |
| 2026-05-06 13:28 | 40.73013 | 31.23130 | 36086 ft | 418 kts | 290° |
| 2026-05-06 13:29 | 40.74774 | 31.15854 | 36083 ft | 420 kts | 290° |
| 2026-05-06 13:29 | 40.76542 | 31.08502 | 36080 ft | 421 kts | 290° |
| 2026-05-06 13:30 | 40.78315 | 31.01139 | 36081 ft | 422 kts | 290° |
| 2026-05-06 13:30 | 40.80094 | 30.93757 | 36086 ft | 422 kts | 290° |
| 2026-05-06 13:31 | 40.81869 | 30.86354 | 36092 ft | 423 kts | 289° |
| 2026-05-06 13:31 | 40.83632 | 30.78943 | 36090 ft | 423 kts | 289° |
| 2026-05-06 13:32 | 40.85015 | 30.71388 | 35674 ft | 428 kts | 278° |
| 2026-05-06 13:32 | 40.85253 | 30.67413 | 34441 ft | 437 kts | 276° |
| 2026-05-06 13:32 | 40.85428 | 30.63411 | 33181 ft | 435 kts | 276° |
| 2026-05-06 13:32 | 40.85569 | 30.59439 | 32061 ft | 430 kts | 275° |
| 2026-05-06 13:33 | 40.85698 | 30.55522 | 31040 ft | 424 kts | 275° |
| 2026-05-06 13:33 | 40.85831 | 30.51671 | 30055 ft | 417 kts | 276° |
| 2026-05-06 13:33 | 40.85974 | 30.47866 | 28949 ft | 411 kts | 276° |
| 2026-05-06 13:33 | 40.86127 | 30.44124 | 27902 ft | 405 kts | 276° |
| 2026-05-06 13:34 | 40.86283 | 30.40430 | 26905 ft | 400 kts | 276° |
| 2026-05-06 13:34 | 40.86435 | 30.36791 | 25940 ft | 395 kts | 276° |
| 2026-05-06 13:34 | 40.86583 | 30.33175 | 25123 ft | 394 kts | 276° |
| 2026-05-06 13:34 | 40.86727 | 30.29597 | 24435 ft | 387 kts | 275° |
| 2026-05-06 13:35 | 40.86865 | 30.26109 | 23556 ft | 383 kts | 275° |
| 2026-05-06 13:35 | 40.87001 | 30.22627 | 22787 ft | 374 kts | 275° |
| 2026-05-06 13:35 | 40.87131 | 30.19261 | 22347 ft | 362 kts | 275° |
| 2026-05-06 13:35 | 40.87260 | 30.15945 | 21883 ft | 359 kts | 275° |
| 2026-05-06 13:36 | 40.87389 | 30.12657 | 21428 ft | 357 kts | 275° |
| 2026-05-06 13:36 | 40.87516 | 30.09401 | 20982 ft | 354 kts | 275° |
| 2026-05-06 13:36 | 40.87641 | 30.06164 | 20536 ft | 352 kts | 275° |
| 2026-05-06 13:36 | 40.87764 | 30.02959 | 20139 ft | 348 kts | 275° |
| 2026-05-06 13:37 | 40.87885 | 29.99768 | 19651 ft | 342 kts | 275° |
| 2026-05-06 13:37 | 40.87997 | 29.96684 | 19237 ft | 332 kts | 275° |
| 2026-05-06 13:37 | 40.88106 | 29.93681 | 18828 ft | 331 kts | 275° |
| 2026-05-06 13:37 | 40.88218 | 29.90637 | 18416 ft | 331 kts | 275° |
| 2026-05-06 13:38 | 40.88330 | 29.87600 | 17954 ft | 331 kts | 275° |
| 2026-05-06 13:38 | 40.88436 | 29.84702 | 17565 ft | 329 kts | 275° |
| 2026-05-06 13:38 | 40.88543 | 29.81693 | 17155 ft | 327 kts | 275° |
| 2026-05-06 13:38 | 40.88652 | 29.78689 | 16752 ft | 325 kts | 275° |
| 2026-05-06 13:39 | 40.88757 | 29.75702 | 16355 ft | 324 kts | 275° |
| 2026-05-06 13:39 | 40.88862 | 29.72729 | 15966 ft | 323 kts | 276° |
| 2026-05-06 13:39 | 40.88967 | 29.69766 | 15567 ft | 323 kts | 276° |
| 2026-05-06 13:39 | 40.89070 | 29.66805 | 15171 ft | 322 kts | 276° |
| 2026-05-06 13:40 | 40.89172 | 29.63847 | 14776 ft | 322 kts | 276° |
| 2026-05-06 13:40 | 40.89273 | 29.60889 | 14383 ft | 321 kts | 276° |
| 2026-05-06 13:40 | 40.89371 | 29.57946 | 13987 ft | 321 kts | 276° |
| 2026-05-06 13:40 | 40.89467 | 29.54997 | 13557 ft | 320 kts | 276° |
| 2026-05-06 13:41 | 40.89563 | 29.52093 | 13158 ft | 319 kts | 276° |
| 2026-05-06 13:41 | 40.89661 | 29.49174 | 12758 ft | 317 kts | 276° |
| 2026-05-06 13:41 | 40.89754 | 29.46271 | 12340 ft | 316 kts | 275° |
| 2026-05-06 13:41 | 40.89847 | 29.43370 | 11880 ft | 316 kts | 275° |
| 2026-05-06 13:42 | 40.89941 | 29.40476 | 11474 ft | 314 kts | 275° |
| 2026-05-06 13:42 | 40.90036 | 29.37607 | 11067 ft | 312 kts | 275° |
| 2026-05-06 13:42 | 40.90132 | 29.34747 | 10652 ft | 311 kts | 275° |
| 2026-05-06 13:42 | 40.90223 | 29.31891 | 10243 ft | 309 kts | 275° |
| 2026-05-06 13:43 | 40.90307 | 29.29077 | 10016 ft | 300 kts | 275° |
| 2026-05-06 13:43 | 40.90383 | 29.26407 | 9652 ft | 285 kts | 275° |
| 2026-05-06 13:43 | 40.90458 | 29.23814 | 9228 ft | 282 kts | 275° |
| 2026-05-06 13:43 | 40.90539 | 29.21212 | 8763 ft | 283 kts | 275° |
| 2026-05-06 13:44 | 40.90621 | 29.18630 | 8342 ft | 281 kts | 275° |
| 2026-05-06 13:44 | 40.90700 | 29.16084 | 8012 ft | 278 kts | 274° |
| 2026-05-06 13:44 | 40.90777 | 29.13493 | 7420 ft | 282 kts | 274° |
| 2026-05-06 13:44 | 40.90828 | 29.11782 | 6994 ft | 279 kts | 274° |
| 2026-05-06 13:45 | 40.90923 | 29.08457 | 6319 ft | 267 kts | 274° |
| 2026-05-06 13:45 | 40.91053 | 29.03840 | 6116 ft | 237 kts | 274° |
| 2026-05-06 13:45 | 40.91096 | 29.02395 | 6059 ft | 229 kts | 274° |
| 2026-05-06 13:46 | 40.91292 | 29.00371 | 5964 ft | 222 kts | 287° |
| 2026-05-06 13:46 | 40.91775 | 28.98439 | 5794 ft | 221 kts | 290° |
| 2026-05-06 13:46 | 40.92259 | 28.96521 | 5641 ft | 220 kts | 290° |
| 2026-05-06 13:46 | 40.92738 | 28.94604 | 5471 ft | 219 kts | 290° |
| 2026-05-06 13:47 | 40.93213 | 28.92690 | 5329 ft | 219 kts | 290° |
| 2026-05-06 13:47 | 40.93690 | 28.90784 | 5171 ft | 218 kts | 290° |
| 2026-05-06 13:47 | 40.94165 | 28.88880 | 5009 ft | 218 kts | 290° |
| 2026-05-06 13:47 | 40.94637 | 28.86980 | 4859 ft | 217 kts | 290° |
| 2026-05-06 13:48 | 40.95109 | 28.85086 | 4695 ft | 217 kts | 290° |
| 2026-05-06 13:48 | 40.95581 | 28.83191 | 4545 ft | 217 kts | 290° |
| 2026-05-06 13:48 | 40.96053 | 28.81296 | 4386 ft | 217 kts | 290° |
| 2026-05-06 13:48 | 40.96523 | 28.79398 | 4233 ft | 217 kts | 290° |
| 2026-05-06 13:49 | 40.97231 | 28.77664 | 4095 ft | 214 kts | 313° |
| 2026-05-06 13:49 | 40.98422 | 28.76523 | 4011 ft | 210 kts | 338° |
| 2026-05-06 13:49 | 40.99808 | 28.76167 | 4003 ft | 198 kts | 359° |
| 2026-05-06 13:49 | 41.01170 | 28.76144 | 4009 ft | 194 kts | 358° |
| 2026-05-06 13:50 | 41.02500 | 28.76118 | 4012 ft | 193 kts | 358° |
| 2026-05-06 13:50 | 41.03845 | 28.76093 | 4008 ft | 193 kts | 358° |
| 2026-05-06 13:50 | 41.05161 | 28.76068 | 4039 ft | 182 kts | 358° |
| 2026-05-06 13:50 | 41.06380 | 28.76046 | 4012 ft | 167 kts | 358° |
| 2026-05-06 13:51 | 41.07512 | 28.76025 | 3915 ft | 159 kts | 358° |
| 2026-05-06 13:51 | 41.08607 | 28.76003 | 3746 ft | 155 kts | 357° |
| 2026-05-06 13:51 | 41.09670 | 28.75983 | 3562 ft | 151 kts | 357° |
| 2026-05-06 13:51 | 41.10709 | 28.75964 | 3367 ft | 146 kts | 358° |
| 2026-05-06 13:52 | 41.11707 | 28.75945 | 3197 ft | 142 kts | 357° |
| 2026-05-06 13:52 | 41.12694 | 28.75926 | 2989 ft | 140 kts | 358° |
| 2026-05-06 13:52 | 41.13673 | 28.75907 | 2809 ft | 141 kts | 358° |
| 2026-05-06 13:52 | 41.14649 | 28.75889 | 2615 ft | 140 kts | 358° |
| 2026-05-06 13:53 | 41.15611 | 28.75871 | 2430 ft | 140 kts | 358° |
| 2026-05-06 13:53 | 41.16582 | 28.75852 | 2241 ft | 140 kts | 358° |
| 2026-05-06 13:53 | 41.17555 | 28.75834 | 2072 ft | 140 kts | 358° |
| 2026-05-06 13:53 | 41.18526 | 28.75816 | 1872 ft | 139 kts | 359° |
| 2026-05-06 13:54 | 41.19491 | 28.75797 | 1681 ft | 138 kts | 359° |
| 2026-05-06 13:54 | 41.20447 | 28.75779 | 1481 ft | 137 kts | 360° |
| 2026-05-06 13:54 | 41.21400 | 28.75761 | 1308 ft | 136 kts | 0° |
| 2026-05-06 13:54 | 41.22341 | 28.75744 | 1112 ft | 135 kts | 1° |
| 2026-05-06 13:55 | 41.23277 | 28.75726 | 937 ft | 134 kts | 3° |
| 2026-05-06 13:55 | 41.24204 | 28.75708 | 752 ft | 131 kts | 3° |
| 2026-05-06 13:55 | 41.25120 | 28.75691 | 583 ft | 131 kts | 4° |
| 2026-05-06 13:55 | 41.26020 | 28.75679 | 399 ft | 130 kts | 5° |
| 2026-05-06 13:56 | 41.26886 | 28.75672 | 333 ft | 109 kts | 356° |
| 2026-05-06 13:56 | 41.27468 | 28.75648 | 331 ft | 59 kts | 359° |
| 2026-05-06 13:56 | 41.27721 | 28.75642 | 333 ft | 24 kts | 359° |
| 2026-05-06 13:56 | 41.27905 | 28.75630 | 331 ft | 27 kts | 343° |
| 2026-05-06 13:57 | 41.28051 | 28.75559 | 332 ft | 17 kts | 321° |
| 2026-05-06 13:57 | 41.28127 | 28.75505 | 331 ft | 10 kts | 331° |
| 2026-05-06 13:57 | 41.28159 | 28.75471 | 333 ft | 4 kts | 303° |
| 2026-05-06 13:57 | 41.28166 | 28.75437 | 333 ft | 3 kts | 275° |
| 2026-05-06 13:58 | 41.28164 | 28.75400 | 332 ft | 7 kts | 257° |
| 2026-05-06 13:58 | 41.28098 | 28.75349 | 334 ft | 13 kts | 181° |
| 2026-05-06 13:58 | 41.28018 | 28.75351 | 333 ft | 10 kts | 179° |
| 2026-05-06 13:58 | 41.27962 | 28.75351 | 330 ft | 7 kts | 180° |
| 2026-05-06 13:59 | 41.27948 | 28.75351 | 331 ft | 0 kts | 180° |
| 2026-05-06 13:59 | 41.27911 | 28.75352 | 333 ft | 11 kts | 179° |
| 2026-05-06 13:59 | 41.27839 | 28.75354 | 334 ft | 10 kts | 179° |
| 2026-05-06 14:00 | 41.27773 | 28.75355 | 333 ft | 9 kts | 179° |
| 2026-05-06 14:00 | 41.27715 | 28.75357 | 330 ft | 8 kts | 179° |
| 2026-05-06 14:00 | 41.27661 | 28.75358 | 331 ft | 9 kts | 178° |
| 2026-05-06 14:00 | 41.27578 | 28.75360 | 330 ft | 12 kts | 179° |
| 2026-05-06 14:01 | 41.27496 | 28.75362 | 336 ft | 11 kts | 179° |
| 2026-05-06 14:01 | 41.27424 | 28.75364 | 331 ft | 10 kts | 179° |
| 2026-05-06 14:01 | 41.27359 | 28.75365 | 333 ft | 9 kts | 179° |
| 2026-05-06 14:01 | 41.27301 | 28.75366 | 331 ft | 8 kts | 179° |
| 2026-05-06 14:02 | 41.27251 | 28.75367 | 332 ft | 7 kts | 179° |
| 2026-05-06 14:02 | 41.27204 | 28.75368 | 331 ft | 8 kts | 179° |
| 2026-05-06 14:02 | 41.27133 | 28.75370 | 331 ft | 10 kts | 179° |
| 2026-05-06 14:02 | 41.27076 | 28.75341 | 331 ft | 8 kts | 236° |
| 2026-05-06 14:03 | 41.27070 | 28.75271 | 334 ft | 7 kts | 271° |
| 2026-05-06 14:03 | 41.27069 | 28.75210 | 334 ft | 6 kts | 266° |
| 2026-05-06 14:03 | 41.27030 | 28.75148 | 332 ft | 13 kts | 191° |
| 2026-05-06 14:03 | 41.26943 | 28.75150 | 333 ft | 11 kts | 179° |
| 2026-05-06 14:04 | 41.26870 | 28.75151 | 334 ft | 10 kts | 179° |
| 2026-05-06 14:04 | 41.26805 | 28.75153 | 332 ft | 9 kts | 180° |
| 2026-05-06 14:04 | 41.26746 | 28.75154 | 332 ft | 9 kts | 176° |
| 2026-05-06 14:04 | 41.26682 | 28.75161 | 331 ft | 9 kts | 175° |
| 2026-05-06 14:05 | 41.26620 | 28.75189 | 333 ft | 12 kts | 140° |
| 2026-05-06 14:05 | 41.26586 | 28.75260 | 334 ft | 14 kts | 147° |
| 2026-05-06 14:05 | 41.26522 | 28.75284 | 333 ft | 6 kts | 188° |
| 2026-05-06 14:05 | 41.26457 | 28.75272 | 332 ft | 10 kts | 181° |
| 2026-05-06 14:06 | 41.26390 | 28.75274 | 332 ft | 9 kts | 179° |
| 2026-05-06 14:06 | 41.26319 | 28.75277 | 333 ft | 11 kts | 178° |
| 2026-05-06 14:06 | 41.26248 | 28.75239 | 332 ft | 12 kts | 247° |
| 2026-05-06 14:06 | 41.26244 | 28.75137 | 334 ft | 11 kts | 269° |
| 2026-05-06 14:07 | 41.26242 | 28.75050 | 334 ft | 9 kts | 266° |
| 2026-05-06 14:07 | 41.26240 | 28.74983 | 332 ft | 7 kts | 270° |
| 2026-05-06 14:07 | 41.26231 | 28.74929 | 332 ft | 5 kts | 250° |
| 2026-05-06 14:07 | 41.26220 | 28.74886 | 330 ft | 4 kts | 251° |
| 2026-05-06 14:08 | 41.26211 | 28.74854 | 333 ft | 2 kts | 251° |
| 2026-05-06 14:08 | 41.26209 | 28.74847 | 331 ft | 0 kts | 251° |
| 2026-05-06 14:10 | 41.26210 | 28.74847 | 331 ft | 0 kts | 251° |
| 2026-05-06 14:14 | 41.26210 | 28.74848 | 331 ft | 0 kts | 251° |